Main page
METAR-TAF:

METAR-TAF

Airports :

Bournemouth, England

Bournemouth Airport

latitude: 50-47N, longitude: 001-50W, elevation: 11 m

Current weather observation

The report was made 26 minutes ago, at 08:50 UTC
Wind 9 kt from the South/Southwest, varying between South/Southeast and Southwest
Temperature 11°C
Humidity 94%
Pressure 1022 hPa
Visibility: 2500 m
Overcast at a height of 900 ft
mist

METAR: EGHH 290850Z 20009KT 160V220 2500 BR OVC009 11/10 Q1022

Time: 10:16 (09:16 UTC)

Forecast

The report was made 1 hour and 13 minutes ago, at 08:03 UTC
Forecast valid from 29 at 09 UTC to 29 at 18 UTC
Wind 10 kt from the Southwest
Visibility: 5000 m
Broken clouds at a height of 500 ft
mist
Becoming
from 29 at 09 UTC to 29 at 12 UTC
Visibility 10 km or more
Scattered clouds at a height of 1200 ft
Probability 30% :
Temporary
from 29 at 09 UTC to 29 at 18 UTC
Wind 15 kt from the Southwest with gusts up to 25 kt

TAF: EGHH 290803Z 2909/2918 22010KT 5000 BR BKN005 BECMG 2909/2912 9999 NSW SCT012 PROB30 TEMPO 2909/2918 23015G25KT

Weather observations and forecasts of more than 4000 airports (METAR and TAF reports).

The available stations are represented by yellow and red dots on the map.

Hover mouse over dot to see the name of the station.

Then click to see weather observations and forecasts.

To change the map : click on the green buttons with a black cross to zoom in, on the green button with a dash to zoom out, or on the green arrows for adjacent maps.


METAR-TAF: